Time,TemperatureF,DewpointF,PressureIn,WindDirection,WindDirectionDegrees,WindSpeedMPH,WindSpeedGustMPH,Humidity,HourlyPrecipIn,Conditions,Clouds,dailyrainin,SolarRadiationWatts/m^2,SoftwareType,DateUTC
2013-02-28 00:04:00,71.4,66.3,29.77,North,0,3.0,-999.0,84,0.00,,,0.66,0,Wunderground v.1.15,2013-02-27 13:04:00,
2013-02-28 00:09:00,71.4,66.3,29.77,North,0,3.0,-999.0,84,0.00,,,0.66,0,Wunderground v.1.15,2013-02-27 13:09:00,
2013-02-28 00:14:00,71.4,66.3,29.77,North,0,3.0,-999.0,84,0.00,,,0.66,0,Wunderground v.1.15,2013-02-27 13:14:00,
2013-02-28 00:19:00,71.4,66.3,29.77,North,0,3.0,-999.0,84,0.00,,,0.66,0,Wunderground v.1.15,2013-02-27 13:19:00,
2013-02-28 00:24:00,71.4,66.3,29.77,North,0,3.0,-999.0,84,0.00,,,0.66,0,Wunderground v.1.15,2013-02-27 13:24:00,
2013-02-28 00:29:00,71.4,66.3,29.77,North,0,3.0,-999.0,84,0.00,,,0.66,0,Wunderground v.1.15,2013-02-27 13:29:00,
2013-02-28 00:34:00,71.4,66.3,29.77,North,0,3.0,-999.0,84,0.00,,,0.66,0,Wunderground v.1.15,2013-02-27 13:34:00,
2013-02-28 00:39:00,71.4,66.3,29.77,North,0,3.0,-999.0,84,0.00,,,0.66,0,Wunderground v.1.15,2013-02-27 13:39:00,
2013-02-28 00:44:00,71.4,66.3,29.77,North,0,3.0,-999.0,84,0.00,,,0.66,0,Wunderground v.1.15,2013-02-27 13:44:00,
2013-02-28 00:49:00,71.0,65.9,29.77,North,0,3.0,-999.0,84,0.00,,,0.66,0,Wunderground v.1.15,2013-02-27 13:49:00,
2013-02-28 00:54:00,71.0,65.9,29.77,North,0,3.0,-999.0,84,0.00,,,0.66,0,Wunderground v.1.15,2013-02-27 13:54:00,
2013-02-28 00:59:00,71.0,65.9,29.77,North,0,3.0,-999.0,84,0.00,,,0.66,0,Wunderground v.1.15,2013-02-27 13:59:00,
2013-02-28 01:04:00,71.0,65.9,29.77,North,0,3.0,-999.0,84,0.00,,,0.66,0,Wunderground v.1.15,2013-02-27 14:04:00,
2013-02-28 01:09:00,71.0,65.9,29.77,North,0,3.0,-999.0,84,0.00,,,0.66,0,Wunderground v.1.15,2013-02-27 14:09:00,
2013-02-28 01:14:00,71.0,65.9,29.77,North,0,3.0,-999.0,84,0.00,,,0.66,0,Wunderground v.1.15,2013-02-27 14:14:00,
2013-02-28 01:19:00,70.7,66.0,29.75,North,0,3.0,-999.0,85,0.00,,,0.66,0,Wunderground v.1.15,2013-02-27 14:19:00,
2013-02-28 01:24:00,70.7,66.0,29.75,North,0,3.0,-999.0,85,0.00,,,0.66,0,Wunderground v.1.15,2013-02-27 14:24:00,
2013-02-28 01:29:00,70.7,66.0,29.75,North,0,3.0,-999.0,85,0.00,,,0.66,0,Wunderground v.1.15,2013-02-27 14:29:00,
2013-02-28 01:34:00,70.7,66.0,29.75,North,0,3.0,-999.0,85,0.00,,,0.66,0,Wunderground v.1.15,2013-02-27 14:34:00,
2013-02-28 01:39:00,70.7,66.0,29.75,North,0,3.0,-999.0,85,0.00,,,0.66,0,Wunderground v.1.15,2013-02-27 14:39:00,
2013-02-28 01:44:00,70.7,66.0,29.75,North,0,3.0,-999.0,85,0.00,,,0.66,0,Wunderground v.1.15,2013-02-27 14:44:00,
2013-02-28 01:49:00,70.3,65.6,29.75,NNW,338,3.0,-999.0,85,0.00,,,0.66,0,Wunderground v.1.15,2013-02-27 14:49:00,
2013-02-28 01:54:00,70.3,65.6,29.75,NNW,338,3.0,-999.0,85,0.00,,,0.66,0,Wunderground v.1.15,2013-02-27 14:54:00,
2013-02-28 01:59:00,70.3,65.6,29.75,NNW,338,3.0,-999.0,85,0.00,,,0.66,0,Wunderground v.1.15,2013-02-27 14:59:00,
2013-02-28 02:04:00,70.3,65.6,29.75,NNW,338,3.0,-999.0,85,0.00,,,0.66,0,Wunderground v.1.15,2013-02-27 15:04:00,
2013-02-28 02:09:00,70.3,65.6,29.75,NNW,338,3.0,-999.0,85,0.00,,,0.66,0,Wunderground v.1.15,2013-02-27 15:09:00,
2013-02-28 02:14:00,70.3,65.6,29.75,NNW,338,3.0,-999.0,85,0.00,,,0.66,0,Wunderground v.1.15,2013-02-27 15:14:00,
2013-02-28 02:19:00,70.0,65.3,29.74,NNW,338,3.0,-999.0,85,0.00,,,0.66,0,Wunderground v.1.15,2013-02-27 15:19:00,
2013-02-28 02:24:00,70.0,65.3,29.74,NNW,338,3.0,-999.0,85,0.00,,,0.66,0,Wunderground v.1.15,2013-02-27 15:24:00,
2013-02-28 02:29:00,70.0,65.3,29.74,NNW,338,3.0,-999.0,85,0.00,,,0.66,0,Wunderground v.1.15,2013-02-27 15:29:00,
2013-02-28 02:34:00,70.0,65.3,29.74,NNW,338,3.0,-999.0,85,0.00,,,0.66,0,Wunderground v.1.15,2013-02-27 15:34:00,
2013-02-28 02:39:00,70.0,65.3,29.74,NNW,338,3.0,-999.0,85,0.00,,,0.66,0,Wunderground v.1.15,2013-02-27 15:39:00,
2013-02-28 02:44:00,70.0,65.3,29.74,NNW,338,3.0,-999.0,85,0.00,,,0.66,0,Wunderground v.1.15,2013-02-27 15:44:00,
2013-02-28 02:49:00,69.8,65.1,29.73,North,0,4.0,-999.0,85,0.00,,,0.66,0,Wunderground v.1.15,2013-02-27 15:49:00,
2013-02-28 02:54:00,69.8,65.1,29.73,North,0,4.0,-999.0,85,0.00,,,0.66,0,Wunderground v.1.15,2013-02-27 15:54:00,
2013-02-28 02:59:00,69.8,65.1,29.73,North,0,4.0,-999.0,85,0.00,,,0.66,0,Wunderground v.1.15,2013-02-27 15:59:00,
2013-02-28 03:04:00,69.8,65.1,29.73,North,0,4.0,-999.0,85,0.00,,,0.66,0,Wunderground v.1.15,2013-02-27 16:04:00,
2013-02-28 03:09:00,69.8,65.1,29.73,North,0,4.0,-999.0,85,0.00,,,0.66,0,Wunderground v.1.15,2013-02-27 16:09:00,
2013-02-28 03:14:00,69.8,65.1,29.73,North,0,4.0,-999.0,85,0.00,,,0.66,0,Wunderground v.1.15,2013-02-27 16:14:00,
2013-02-28 03:19:00,69.4,65.0,29.72,North,0,3.0,-999.0,86,0.00,,,0.66,0,Wunderground v.1.15,2013-02-27 16:19:00,
2013-02-28 03:24:00,69.4,65.0,29.72,North,0,3.0,-999.0,86,0.00,,,0.66,0,Wunderground v.1.15,2013-02-27 16:24:00,
2013-02-28 03:29:00,69.4,65.0,29.72,North,0,3.0,-999.0,86,0.00,,,0.66,0,Wunderground v.1.15,2013-02-27 16:29:00,
2013-02-28 03:34:00,69.4,65.0,29.72,North,0,3.0,-999.0,86,0.00,,,0.66,0,Wunderground v.1.15,2013-02-27 16:34:00,
2013-02-28 03:39:00,69.4,65.0,29.72,North,0,3.0,-999.0,86,0.00,,,0.66,0,Wunderground v.1.15,2013-02-27 16:39:00,
2013-02-28 03:44:00,69.4,65.0,29.72,North,0,3.0,-999.0,86,0.00,,,0.66,0,Wunderground v.1.15,2013-02-27 16:44:00,
2013-02-28 03:49:00,69.0,65.0,29.71,North,0,3.0,-999.0,87,0.00,,,0.66,0,Wunderground v.1.15,2013-02-27 16:49:00,
2013-02-28 03:54:00,69.0,65.0,29.71,North,0,3.0,-999.0,87,0.00,,,0.66,0,Wunderground v.1.15,2013-02-27 16:54:00,
2013-02-28 03:59:00,69.0,65.0,29.71,North,0,3.0,-999.0,87,0.00,,,0.66,0,Wunderground v.1.15,2013-02-27 16:59:00,
2013-02-28 04:04:00,69.0,65.0,29.71,North,0,3.0,-999.0,87,0.00,,,0.66,0,Wunderground v.1.15,2013-02-27 17:04:00,
2013-02-28 04:09:00,69.0,65.0,29.71,North,0,3.0,-999.0,87,0.00,,,0.66,0,Wunderground v.1.15,2013-02-27 17:09:00,
2013-02-28 04:14:00,69.0,65.0,29.71,North,0,3.0,-999.0,87,0.00,,,0.66,0,Wunderground v.1.15,2013-02-27 17:14:00,
2013-02-28 04:19:00,68.8,65.1,29.71,North,0,3.0,-999.0,88,0.00,,,0.66,0,Wunderground v.1.15,2013-02-27 17:19:00,
2013-02-28 04:24:00,68.8,65.1,29.71,North,0,3.0,-999.0,88,0.00,,,0.66,0,Wunderground v.1.15,2013-02-27 17:24:00,
2013-02-28 04:29:00,68.8,65.1,29.71,North,0,3.0,-999.0,88,0.00,,,0.66,0,Wunderground v.1.15,2013-02-27 17:29:00,
2013-02-28 04:34:00,68.8,65.1,29.71,North,0,3.0,-999.0,88,0.00,,,0.66,0,Wunderground v.1.15,2013-02-27 17:34:00,
2013-02-28 04:39:00,68.8,65.1,29.71,North,0,3.0,-999.0,88,0.00,,,0.66,0,Wunderground v.1.15,2013-02-27 17:39:00,
2013-02-28 04:44:00,68.8,65.1,29.71,North,0,3.0,-999.0,88,0.00,,,0.66,0,Wunderground v.1.15,2013-02-27 17:44:00,
2013-02-28 04:49:00,68.7,64.7,29.71,North,0,4.0,-999.0,87,0.00,,,0.66,0,Wunderground v.1.15,2013-02-27 17:49:00,
2013-02-28 04:54:00,68.7,64.7,29.71,North,0,4.0,-999.0,87,0.00,,,0.66,0,Wunderground v.1.15,2013-02-27 17:54:00,
2013-02-28 04:59:00,68.7,64.7,29.71,North,0,4.0,-999.0,87,0.00,,,0.66,0,Wunderground v.1.15,2013-02-27 17:59:00,
2013-02-28 05:04:00,68.7,64.7,29.71,North,0,4.0,-999.0,87,0.00,,,0.66,0,Wunderground v.1.15,2013-02-27 18:04:00,
2013-02-28 05:09:00,68.7,64.7,29.71,North,0,4.0,-999.0,87,0.00,,,0.66,0,Wunderground v.1.15,2013-02-27 18:09:00,
2013-02-28 05:14:00,68.7,64.7,29.71,North,0,4.0,-999.0,87,0.00,,,0.66,0,Wunderground v.1.15,2013-02-27 18:14:00,
2013-02-28 05:19:00,68.8,65.1,29.71,North,0,3.0,-999.0,88,0.00,,,0.66,0,Wunderground v.1.15,2013-02-27 18:19:00,
2013-02-28 05:24:00,68.8,65.1,29.71,North,0,3.0,-999.0,88,0.00,,,0.66,0,Wunderground v.1.15,2013-02-27 18:24:00,
2013-02-28 05:29:00,68.8,65.1,29.71,North,0,3.0,-999.0,88,0.00,,,0.66,0,Wunderground v.1.15,2013-02-27 18:29:00,
2013-02-28 05:34:00,68.8,65.1,29.71,North,0,3.0,-999.0,88,0.00,,,0.66,0,Wunderground v.1.15,2013-02-27 18:34:00,
2013-02-28 05:39:00,68.8,65.1,29.71,North,0,3.0,-999.0,88,0.00,,,0.66,0,Wunderground v.1.15,2013-02-27 18:39:00,
2013-02-28 05:44:00,68.8,65.1,29.71,North,0,3.0,-999.0,88,0.00,,,0.66,0,Wunderground v.1.15,2013-02-27 18:44:00,
2013-02-28 05:49:00,68.6,64.9,29.72,North,0,3.0,-999.0,88,0.00,,,0.66,0,Wunderground v.1.15,2013-02-27 18:49:00,
2013-02-28 05:54:00,68.6,64.9,29.72,North,0,3.0,-999.0,88,0.00,,,0.66,0,Wunderground v.1.15,2013-02-27 18:54:00,
2013-02-28 05:59:00,68.6,64.9,29.72,North,0,3.0,-999.0,88,0.00,,,0.66,0,Wunderground v.1.15,2013-02-27 18:59:00,
2013-02-28 06:04:00,68.6,64.9,29.72,North,0,3.0,-999.0,88,0.00,,,0.66,0,Wunderground v.1.15,2013-02-27 19:04:00,
2013-02-28 06:09:00,68.6,64.9,29.72,North,0,3.0,-999.0,88,0.00,,,0.66,0,Wunderground v.1.15,2013-02-27 19:09:00,
2013-02-28 06:14:00,68.6,64.9,29.72,North,0,3.0,-999.0,88,0.00,,,0.66,0,Wunderground v.1.15,2013-02-27 19:14:00,
2013-02-28 06:19:00,68.5,65.1,29.72,North,0,2.0,-999.0,89,0.00,,,0.66,0,Wunderground v.1.15,2013-02-27 19:19:00,
2013-02-28 06:24:00,68.5,65.1,29.72,North,0,2.0,-999.0,89,0.00,,,0.66,0,Wunderground v.1.15,2013-02-27 19:24:00,
2013-02-28 06:29:00,68.5,65.1,29.72,North,0,2.0,-999.0,89,0.00,,,0.66,0,Wunderground v.1.15,2013-02-27 19:29:00,
2013-02-28 06:34:00,68.5,65.1,29.72,North,0,2.0,-999.0,89,0.00,,,0.66,0,Wunderground v.1.15,2013-02-27 19:34:00,
2013-02-28 06:39:00,68.5,65.1,29.72,North,0,2.0,-999.0,89,0.00,,,0.66,0,Wunderground v.1.15,2013-02-27 19:39:00,
2013-02-28 06:44:00,68.5,65.1,29.72,North,0,2.0,-999.0,89,0.00,,,0.66,0,Wunderground v.1.15,2013-02-27 19:44:00,
2013-02-28 06:49:00,68.4,65.0,29.73,NNW,338,2.0,-999.0,89,0.00,,,0.66,10,Wunderground v.1.15,2013-02-27 19:49:00,
2013-02-28 06:54:00,68.4,65.0,29.73,NNW,338,2.0,-999.0,89,0.00,,,0.66,10,Wunderground v.1.15,2013-02-27 19:54:00,
2013-02-28 06:59:00,68.4,65.0,29.73,NNW,338,2.0,-999.0,89,0.00,,,0.66,10,Wunderground v.1.15,2013-02-27 19:59:00,
2013-02-28 07:04:00,68.4,65.0,29.73,NNW,338,2.0,-999.0,89,0.00,,,0.66,10,Wunderground v.1.15,2013-02-27 20:04:00,
2013-02-28 07:09:00,68.4,65.0,29.73,NNW,338,2.0,-999.0,89,0.00,,,0.66,10,Wunderground v.1.15,2013-02-27 20:09:00,
2013-02-28 07:14:00,68.4,65.0,29.73,NNW,338,2.0,-999.0,89,0.00,,,0.66,10,Wunderground v.1.15,2013-02-27 20:14:00,
2013-02-28 07:19:00,68.7,65.3,29.73,North,0,2.0,-999.0,89,0.00,,,0.66,46,Wunderground v.1.15,2013-02-27 20:19:00,
2013-02-28 07:24:00,68.7,65.3,29.73,North,0,2.0,-999.0,89,0.00,,,0.66,46,Wunderground v.1.15,2013-02-27 20:24:00,
2013-02-28 07:29:00,68.7,65.3,29.73,North,0,2.0,-999.0,89,0.00,,,0.66,46,Wunderground v.1.15,2013-02-27 20:29:00,
2013-02-28 07:34:00,68.7,65.3,29.73,North,0,2.0,-999.0,89,0.00,,,0.66,46,Wunderground v.1.15,2013-02-27 20:34:00,
2013-02-28 07:39:00,68.7,65.3,29.73,North,0,2.0,-999.0,89,0.00,,,0.66,46,Wunderground v.1.15,2013-02-27 20:39:00,
2013-02-28 07:44:00,68.7,65.3,29.73,North,0,2.0,-999.0,89,0.00,,,0.66,46,Wunderground v.1.15,2013-02-27 20:44:00,
2013-02-28 07:49:00,69.8,66.1,29.73,North,0,3.0,-999.0,88,0.00,,,0.66,84,Wunderground v.1.15,2013-02-27 20:49:00,
2013-02-28 07:54:00,69.8,66.1,29.73,North,0,3.0,-999.0,88,0.00,,,0.66,84,Wunderground v.1.15,2013-02-27 20:54:00,
2013-02-28 07:59:00,69.8,66.1,29.73,North,0,3.0,-999.0,88,0.00,,,0.66,84,Wunderground v.1.15,2013-02-27 20:59:00,
2013-02-28 08:04:00,69.8,66.1,29.73,North,0,3.0,-999.0,88,0.00,,,0.66,84,Wunderground v.1.15,2013-02-27 21:04:00,
2013-02-28 08:09:00,69.8,66.1,29.73,North,0,3.0,-999.0,88,0.00,,,0.66,84,Wunderground v.1.15,2013-02-27 21:09:00,
2013-02-28 08:14:00,69.8,66.1,29.73,North,0,3.0,-999.0,88,0.00,,,0.66,84,Wunderground v.1.15,2013-02-27 21:14:00,
2013-02-28 08:19:00,71.4,66.0,29.73,NNE,23,3.0,-999.0,83,0.00,,,0.66,153,Wunderground v.1.15,2013-02-27 21:19:00,
2013-02-28 08:24:00,71.4,66.0,29.73,NNE,23,3.0,-999.0,83,0.00,,,0.66,153,Wunderground v.1.15,2013-02-27 21:24:00,
2013-02-28 08:29:00,71.4,66.0,29.73,NNE,23,3.0,-999.0,83,0.00,,,0.66,153,Wunderground v.1.15,2013-02-27 21:29:00,
2013-02-28 08:34:00,71.4,66.0,29.73,NNE,23,3.0,-999.0,83,0.00,,,0.66,153,Wunderground v.1.15,2013-02-27 21:34:00,
2013-02-28 08:39:00,71.4,66.0,29.73,NNE,23,3.0,-999.0,83,0.00,,,0.66,153,Wunderground v.1.15,2013-02-27 21:39:00,
2013-02-28 08:44:00,71.4,66.0,29.73,NNE,23,3.0,-999.0,83,0.00,,,0.66,153,Wunderground v.1.15,2013-02-27 21:44:00,
2013-02-28 08:49:00,73.9,67.7,29.74,North,0,3.0,-999.0,81,0.00,,,0.66,116,Wunderground v.1.15,2013-02-27 21:49:00,
2013-02-28 08:54:00,73.9,67.7,29.74,North,0,3.0,-999.0,81,0.00,,,0.66,116,Wunderground v.1.15,2013-02-27 21:54:00,
2013-02-28 08:59:00,73.9,67.7,29.74,North,0,3.0,-999.0,81,0.00,,,0.66,116,Wunderground v.1.15,2013-02-27 21:59:00,
2013-02-28 09:04:00,73.9,67.7,29.74,North,0,3.0,-999.0,81,0.00,,,0.66,116,Wunderground v.1.15,2013-02-27 22:04:00,
2013-02-28 09:09:00,73.9,67.7,29.74,North,0,3.0,-999.0,81,0.00,,,0.66,116,Wunderground v.1.15,2013-02-27 22:09:00,
2013-02-28 09:14:00,73.9,67.7,29.74,North,0,3.0,-999.0,81,0.00,,,0.66,116,Wunderground v.1.15,2013-02-27 22:14:00,
2013-02-28 09:19:00,76.4,66.3,29.73,North,0,3.0,-999.0,71,0.00,,,0.66,519,Wunderground v.1.15,2013-02-27 22:19:00,
2013-02-28 09:24:00,76.4,66.3,29.73,North,0,3.0,-999.0,71,0.00,,,0.66,519,Wunderground v.1.15,2013-02-27 22:24:00,
2013-02-28 09:29:00,76.4,66.3,29.73,North,0,3.0,-999.0,71,0.00,,,0.66,519,Wunderground v.1.15,2013-02-27 22:29:00,
2013-02-28 09:34:00,76.4,66.3,29.73,North,0,3.0,-999.0,71,0.00,,,0.66,519,Wunderground v.1.15,2013-02-27 22:34:00,
2013-02-28 09:39:00,76.4,66.3,29.73,North,0,3.0,-999.0,71,0.00,,,0.66,519,Wunderground v.1.15,2013-02-27 22:39:00,
2013-02-28 09:44:00,76.4,66.3,29.73,North,0,3.0,-999.0,71,0.00,,,0.66,519,Wunderground v.1.15,2013-02-27 22:44:00,
2013-02-28 09:49:00,79.8,68.7,29.73,NW,315,3.0,-999.0,69,0.00,,,0.66,346,Wunderground v.1.15,2013-02-27 22:49:00,
2013-02-28 09:54:00,79.8,68.7,29.73,NW,315,3.0,-999.0,69,0.00,,,0.66,346,Wunderground v.1.15,2013-02-27 22:54:00,
2013-02-28 09:59:00,79.8,68.7,29.73,NW,315,3.0,-999.0,69,0.00,,,0.66,346,Wunderground v.1.15,2013-02-27 22:59:00,
2013-02-28 10:04:00,79.8,68.7,29.73,NW,315,3.0,-999.0,69,0.00,,,0.66,346,Wunderground v.1.15,2013-02-27 23:04:00,
2013-02-28 10:09:00,79.8,68.7,29.73,NW,315,3.0,-999.0,69,0.00,,,0.66,346,Wunderground v.1.15,2013-02-27 23:09:00,
2013-02-28 10:14:00,79.8,68.7,29.73,NW,315,3.0,-999.0,69,0.00,,,0.66,346,Wunderground v.1.15,2013-02-27 23:14:00,
2013-02-28 10:19:00,79.9,66.6,29.72,NW,315,4.0,-999.0,64,0.00,,,0.66,426,Wunderground v.1.15,2013-02-27 23:19:00,
2013-02-28 10:24:00,79.9,66.6,29.72,NW,315,4.0,-999.0,64,0.00,,,0.66,426,Wunderground v.1.15,2013-02-27 23:24:00,
2013-02-28 10:29:00,79.9,66.6,29.72,NW,315,4.0,-999.0,64,0.00,,,0.66,426,Wunderground v.1.15,2013-02-27 23:29:00,
2013-02-28 10:34:00,79.9,66.6,29.72,NW,315,4.0,-999.0,64,0.00,,,0.66,426,Wunderground v.1.15,2013-02-27 23:34:00,
2013-02-28 10:39:00,79.9,66.6,29.72,NW,315,4.0,-999.0,64,0.00,,,0.66,426,Wunderground v.1.15,2013-02-27 23:39:00,
2013-02-28 10:44:00,79.9,66.6,29.72,NW,315,4.0,-999.0,64,0.00,,,0.66,426,Wunderground v.1.15,2013-02-27 23:44:00,
2013-02-28 10:49:00,81.9,66.2,29.72,NW,315,5.0,-999.0,59,0.00,,,0.66,500,Wunderground v.1.15,2013-02-27 23:49:00,
2013-02-28 10:54:00,81.9,66.2,29.72,NW,315,5.0,-999.0,59,0.00,,,0.66,500,Wunderground v.1.15,2013-02-27 23:54:00,
2013-02-28 10:59:00,81.9,66.2,29.72,NW,315,5.0,-999.0,59,0.00,,,0.66,500,Wunderground v.1.15,2013-02-27 23:59:00,
2013-02-28 11:04:00,81.9,66.2,29.72,NW,315,5.0,-999.0,59,0.00,,,0.66,500,Wunderground v.1.15,2013-02-28 00:04:00,
2013-02-28 11:09:00,81.9,66.2,29.72,NW,315,5.0,-999.0,59,0.00,,,0.66,500,Wunderground v.1.15,2013-02-28 00:09:00,
2013-02-28 11:14:00,81.9,66.2,29.72,NW,315,5.0,-999.0,59,0.00,,,0.66,500,Wunderground v.1.15,2013-02-28 00:14:00,
2013-02-28 11:19:00,85.3,68.8,29.71,NW,315,5.0,-999.0,58,0.00,,,0.66,829,Wunderground v.1.15,2013-02-28 00:19:00,
2013-02-28 11:24:00,85.3,68.8,29.71,NW,315,5.0,-999.0,58,0.00,,,0.66,829,Wunderground v.1.15,2013-02-28 00:24:00,
2013-02-28 11:29:00,85.3,68.8,29.71,NW,315,5.0,-999.0,58,0.00,,,0.66,829,Wunderground v.1.15,2013-02-28 00:29:00,
2013-02-28 11:34:00,85.3,68.8,29.71,NW,315,5.0,-999.0,58,0.00,,,0.66,829,Wunderground v.1.15,2013-02-28 00:34:00,
2013-02-28 11:39:00,85.3,68.8,29.71,NW,315,5.0,-999.0,58,0.00,,,0.66,829,Wunderground v.1.15,2013-02-28 00:39:00,
2013-02-28 11:44:00,85.3,68.8,29.71,NW,315,5.0,-999.0,58,0.00,,,0.66,829,Wunderground v.1.15,2013-02-28 00:44:00,
2013-02-28 11:49:00,85.1,68.7,29.70,NW,315,5.0,-999.0,58,0.00,,,0.66,606,Wunderground v.1.15,2013-02-28 00:49:00,
2013-02-28 11:54:00,85.1,68.7,29.70,NW,315,5.0,-999.0,58,0.00,,,0.66,606,Wunderground v.1.15,2013-02-28 00:54:00,
2013-02-28 11:59:00,85.1,68.7,29.70,NW,315,5.0,-999.0,58,0.00,,,0.66,606,Wunderground v.1.15,2013-02-28 00:59:00,
2013-02-28 12:04:00,85.1,68.7,29.70,NW,315,5.0,-999.0,58,0.00,,,0.66,606,Wunderground v.1.15,2013-02-28 01:04:00,
2013-02-28 12:09:00,85.2,67.2,29.70,WNW,286,6.0,7.0,55,0.00,,,0.00,439,Wunderground v.1.15,2013-02-28 01:09:00,
2013-02-28 12:14:00,85.1,67.1,29.69,NW,306,5.0,10.0,55,0.00,,,0.00,461,Wunderground v.1.15,2013-02-28 01:14:00,
2013-02-28 12:19:00,85.2,66.7,29.69,NNW,336,6.0,8.0,54,0.00,,,0.00,517,Wunderground v.1.15,2013-02-28 01:19:00,
2013-02-28 12:24:00,86.0,66.9,29.69,WNW,300,6.0,8.0,53,0.00,,,0.00,707,Wunderground v.1.15,2013-02-28 01:24:00,
2013-02-28 12:29:00,86.1,66.4,29.69,West,281,6.0,11.0,52,0.00,,,0.00,652,Wunderground v.1.15,2013-02-28 01:29:00,
2013-02-28 12:34:00,85.3,65.7,29.69,WNW,293,6.0,-999.0,52,0.00,,,0.66,532,Wunderground v.1.15,2013-02-28 01:34:00,
2013-02-28 12:39:00,86.3,66.6,29.69,NNE,12,6.0,6.0,52,0.00,,,0.00,598,Wunderground v.1.15,2013-02-28 01:39:00,
2013-02-28 12:44:00,85.5,66.4,29.69,West,279,6.0,6.0,53,0.00,,,0.00,550,Wunderground v.1.15,2013-02-28 01:44:00,
2013-02-28 12:49:00,85.9,66.8,29.68,NW,325,6.0,6.0,53,0.00,,,0.00,439,Wunderground v.1.15,2013-02-28 01:49:00,
2013-02-28 12:54:00,86.3,66.0,29.68,NW,315,6.0,-999.0,51,0.00,,,0.66,600,Wunderground v.1.15,2013-02-28 01:54:00,
2013-02-28 12:59:00,87.6,67.2,29.68,NW,309,5.0,9.0,51,0.00,,,0.00,531,Wunderground v.1.15,2013-02-28 01:59:00,
2013-02-28 13:04:00,86.3,66.0,29.68,NW,315,6.0,-999.0,51,0.00,,,0.66,600,Wunderground v.1.15,2013-02-28 02:04:00,
2013-02-28 13:09:00,86.9,67.2,29.68,NW,310,6.0,6.0,52,0.00,,,0.00,418,Wunderground v.1.15,2013-02-28 02:09:00,
2013-02-28 13:14:00,85.4,67.4,29.68,WNW,296,5.0,5.0,55,0.00,,,0.00,380,Wunderground v.1.15,2013-02-28 02:14:00,
2013-02-28 13:19:00,85.2,67.7,29.68,NNW,342,5.0,5.0,56,0.00,,,0.00,404,Wunderground v.1.15,2013-02-28 02:19:00,
2013-02-28 13:24:00,85.7,67.7,29.68,West,273,5.0,5.0,55,0.00,,,0.00,478,Wunderground v.1.15,2013-02-28 02:24:00,
2013-02-28 13:29:00,86.0,68.5,29.67,NW,315,5.0,-999.0,56,0.00,,,0.66,471,Wunderground v.1.15,2013-02-28 02:29:00,
2013-02-28 13:34:00,86.2,68.1,29.67,WNW,289,4.0,7.0,55,0.00,,,0.00,652,Wunderground v.1.15,2013-02-28 02:34:00,
2013-02-28 13:39:00,86.4,68.3,29.67,WSW,252,4.0,7.0,55,0.00,,,0.00,552,Wunderground v.1.15,2013-02-28 02:39:00,
2013-02-28 13:44:00,86.8,68.2,29.67,NW,324,4.0,4.0,54,0.00,,,0.00,606,Wunderground v.1.15,2013-02-28 02:44:00,
2013-02-28 13:49:00,88.1,68.8,29.67,NNW,331,4.0,6.0,53,0.00,,,0.00,686,Wunderground v.1.15,2013-02-28 02:49:00,
2013-02-28 13:54:00,87.1,67.3,29.67,WNW,293,4.0,-999.0,52,0.00,,,0.66,700,Wunderground v.1.15,2013-02-28 02:54:00,
2013-02-28 13:59:00,88.0,68.7,29.67,NW,306,3.0,3.0,53,0.00,,,0.00,735,Wunderground v.1.15,2013-02-28 02:59:00,
2013-02-28 14:04:00,87.1,67.3,29.67,WNW,293,4.0,-999.0,52,0.00,,,0.66,700,Wunderground v.1.15,2013-02-28 03:04:00,
2013-02-28 14:09:00,89.4,68.9,29.67,WNW,288,3.0,10.0,51,0.00,,,0.00,872,Wunderground v.1.15,2013-02-28 03:09:00,
2013-02-28 14:14:00,88.5,68.1,29.67,NW,321,3.0,6.0,51,0.00,,,0.00,420,Wunderground v.1.15,2013-02-28 03:14:00,
2013-02-28 14:19:00,87.5,67.7,29.66,West,259,4.0,6.0,52,0.00,,,0.00,573,Wunderground v.1.15,2013-02-28 03:19:00,
2013-02-28 14:24:00,88.1,67.7,29.66,NW,315,4.0,-999.0,51,0.00,,,0.66,647,Wunderground v.1.15,2013-02-28 03:24:00,
2013-02-28 14:29:00,88.8,68.3,29.66,WNW,284,4.0,5.0,51,0.00,,,0.00,1004,Wunderground v.1.15,2013-02-28 03:29:00,
2013-02-28 14:34:00,88.9,67.9,29.66,WNW,303,3.0,3.0,50,0.00,,,0.00,330,Wunderground v.1.15,2013-02-28 03:34:00,
2013-02-28 14:39:00,88.1,67.7,29.66,NNW,340,3.0,3.0,51,0.00,,,0.00,283,Wunderground v.1.15,2013-02-28 03:39:00,
2013-02-28 14:44:00,88.1,67.7,29.66,NW,315,4.0,-999.0,51,0.00,,,0.66,647,Wunderground v.1.15,2013-02-28 03:44:00,
2013-02-28 14:49:00,88.3,67.9,29.66,NW,312,5.0,9.0,51,0.00,,,0.00,464,Wunderground v.1.15,2013-02-28 03:49:00,
2013-02-28 14:54:00,88.0,67.6,29.66,NW,311,5.0,5.0,51,0.00,,,0.00,434,Wunderground v.1.15,2013-02-28 03:54:00,
2013-02-28 14:59:00,87.8,68.0,29.66,NW,304,5.0,7.0,52,0.00,,,0.00,561,Wunderground v.1.15,2013-02-28 03:59:00,
2013-02-28 15:04:00,88.2,68.4,29.66,WNW,293,4.0,-999.0,52,0.00,,,0.66,413,Wunderground v.1.15,2013-02-28 04:04:00,
2013-02-28 15:09:00,88.2,67.2,29.65,NW,325,5.0,10.0,50,0.00,,,0.00,675,Wunderground v.1.15,2013-02-28 04:09:00,
2013-02-28 15:14:00,88.2,67.8,29.65,North,355,5.0,5.0,51,0.00,,,0.00,471,Wunderground v.1.15,2013-02-28 04:14:00,
2013-02-28 15:19:00,87.9,67.5,29.66,NW,317,5.0,5.0,51,0.00,,,0.00,373,Wunderground v.1.15,2013-02-28 04:19:00,
2013-02-28 15:24:00,87.9,68.6,29.65,NW,315,5.0,-999.0,53,0.00,,,0.66,467,Wunderground v.1.15,2013-02-28 04:24:00,
2013-02-28 15:29:00,86.3,67.2,29.66,West,275,4.0,5.0,53,0.00,,,0.00,338,Wunderground v.1.15,2013-02-28 04:29:00,
2013-02-28 15:34:00,85.5,67.0,29.65,West,265,4.0,4.0,54,0.00,,,0.00,285,Wunderground v.1.15,2013-02-28 04:34:00,
2013-02-28 15:39:00,85.8,67.8,29.65,NW,308,4.0,4.0,55,0.00,,,0.00,276,Wunderground v.1.15,2013-02-28 04:39:00,
2013-02-28 15:44:00,86.4,67.2,29.65,WNW,282,2.0,2.0,53,0.00,,,0.00,257,Wunderground v.1.15,2013-02-28 04:44:00,
2013-02-28 15:49:00,86.0,66.3,29.65,WNW,293,3.0,-999.0,52,0.00,,,0.66,301,Wunderground v.1.15,2013-02-28 04:49:00,
2013-02-28 15:54:00,86.3,67.7,29.65,NW,321,3.0,4.0,54,0.00,,,0.00,341,Wunderground v.1.15,2013-02-28 04:54:00,
2013-02-28 15:59:00,86.6,66.9,29.65,NW,309,3.0,4.0,52,0.00,,,0.00,352,Wunderground v.1.15,2013-02-28 04:59:00,
2013-02-28 16:04:00,86.8,67.6,29.65,NW,320,3.0,3.0,53,0.00,,,0.00,283,Wunderground v.1.15,2013-02-28 05:04:00,
2013-02-28 16:09:00,86.0,66.3,29.65,WNW,293,3.0,-999.0,52,0.00,,,0.66,301,Wunderground v.1.15,2013-02-28 05:09:00,
2013-02-28 16:14:00,86.0,66.3,29.65,WNW,293,3.0,-999.0,52,0.00,,,0.66,301,Wunderground v.1.15,2013-02-28 05:14:00,
2013-02-28 16:19:00,85.3,71.3,29.64,ENE,68,1.0,-999.0,63,0.00,,,0.66,213,Wunderground v.1.15,2013-02-28 05:19:00,
2013-02-28 16:24:00,85.3,71.3,29.64,ENE,68,1.0,-999.0,63,0.00,,,0.66,213,Wunderground v.1.15,2013-02-28 05:24:00,
2013-02-28 16:29:00,85.3,71.3,29.64,ENE,68,1.0,-999.0,63,0.00,,,0.66,213,Wunderground v.1.15,2013-02-28 05:29:00,
2013-02-28 16:34:00,82.3,68.9,29.64,ENE,57,2.0,5.0,64,0.00,,,0.00,230,Wunderground v.1.15,2013-02-28 05:34:00,
2013-02-28 16:39:00,81.6,69.1,29.64,ENE,66,2.0,5.0,66,0.00,,,0.00,271,Wunderground v.1.15,2013-02-28 05:39:00,
2013-02-28 16:44:00,81.5,69.0,29.64,NE,52,1.0,1.0,66,0.00,,,0.00,236,Wunderground v.1.15,2013-02-28 05:44:00,
2013-02-28 16:49:00,82.3,69.8,29.64,SSW,201,1.0,1.0,66,0.00,,,0.00,200,Wunderground v.1.15,2013-02-28 05:49:00,
2013-02-28 16:54:00,82.2,69.7,29.64,SSW,194,1.0,1.0,66,0.00,,,0.00,162,Wunderground v.1.15,2013-02-28 05:54:00,
2013-02-28 16:59:00,82.0,70.0,29.65,ENE,68,1.0,-999.0,67,0.00,,,0.66,207,Wunderground v.1.15,2013-02-28 05:59:00,
2013-02-28 17:04:00,80.3,68.3,29.65,SE,134,1.0,1.0,67,0.00,,,0.00,113,Wunderground v.1.15,2013-02-28 06:04:00,
2013-02-28 17:09:00,79.3,68.2,29.65,SE,146,1.0,1.0,69,0.00,,,0.00,125,Wunderground v.1.15,2013-02-28 06:09:00,
2013-02-28 17:14:00,79.3,68.2,29.66,SW,219,1.0,3.0,69,0.00,,,0.00,137,Wunderground v.1.15,2013-02-28 06:14:00,
2013-02-28 17:19:00,77.4,67.3,29.67,WSW,243,2.0,6.0,71,0.00,,,0.00,179,Wunderground v.1.15,2013-02-28 06:19:00,
2013-02-28 17:24:00,77.9,70.9,29.68,SE,135,2.0,-999.0,79,0.00,,,0.66,140,Wunderground v.1.15,2013-02-28 06:24:00,
2013-02-28 17:29:00,72.2,65.7,29.68,East,100,3.0,3.0,80,0.00,,,0.00,113,Wunderground v.1.15,2013-02-28 06:29:00,
2013-02-28 17:34:00,77.9,70.9,29.68,SE,135,2.0,-999.0,79,0.00,,,0.66,140,Wunderground v.1.15,2013-02-28 06:34:00,
2013-02-28 17:39:00,71.0,65.2,29.68,WNW,293,3.0,3.0,82,0.00,,,0.00,53,Wunderground v.1.15,2013-02-28 06:39:00,
2013-02-28 17:44:00,70.4,65.0,29.68,West,279,4.0,4.0,83,0.00,,,0.00,46,Wunderground v.1.15,2013-02-28 06:44:00,
2013-02-28 17:49:00,70.7,66.3,29.69,SSW,203,4.0,-999.0,86,0.00,,,0.66,54,Wunderground v.1.15,2013-02-28 06:49:00,
2013-02-28 17:54:00,70.0,65.3,29.69,WSW,242,4.0,4.0,85,0.00,,,0.00,40,Wunderground v.1.15,2013-02-28 06:54:00,
2013-02-28 17:59:00,70.0,65.6,29.69,WSW,256,3.0,4.0,86,0.00,,,0.00,37,Wunderground v.1.15,2013-02-28 06:59:00,
2013-02-28 18:04:00,70.1,65.7,29.69,SW,221,4.0,7.0,86,0.00,,,0.00,32,Wunderground v.1.15,2013-02-28 07:04:00,
2013-02-28 18:09:00,69.9,65.2,29.69,SW,234,5.0,7.0,85,0.00,,,0.00,30,Wunderground v.1.15,2013-02-28 07:09:00,
2013-02-28 18:14:00,70.7,66.3,29.69,SSW,203,4.0,-999.0,86,0.00,,,0.66,54,Wunderground v.1.15,2013-02-28 07:14:00,
2013-02-28 18:19:00,69.5,65.1,29.70,South,180,4.0,7.0,86,0.00,,,0.00,16,Wunderground v.1.15,2013-02-28 07:19:00,
2013-02-28 18:24:00,69.4,65.0,29.70,SSE,155,4.0,4.0,86,0.00,,,0.00,14,Wunderground v.1.15,2013-02-28 07:24:00,
2013-02-28 18:29:00,69.1,64.7,29.70,SW,220,4.0,12.0,86,0.00,,,0.00,12,Wunderground v.1.15,2013-02-28 07:29:00,
2013-02-28 18:34:00,69.7,65.3,29.70,SW,225,4.0,-999.0,86,0.00,,,0.66,22,Wunderground v.1.15,2013-02-28 07:34:00,
2013-02-28 18:39:00,68.7,64.7,29.70,WNW,291,5.0,5.0,87,0.00,,,0.00,11,Wunderground v.1.15,2013-02-28 07:39:00,
2013-02-28 18:44:00,69.7,65.3,29.70,SW,225,4.0,-999.0,86,0.00,,,0.66,22,Wunderground v.1.15,2013-02-28 07:44:00,
2013-02-28 18:49:00,68.3,64.3,29.71,WSW,244,5.0,10.0,87,0.00,,,0.00,7,Wunderground v.1.15,2013-02-28 07:49:00,
2013-02-28 18:54:00,68.3,64.6,29.71,SW,227,5.0,10.0,88,0.00,,,0.00,5,Wunderground v.1.15,2013-02-28 07:54:00,
2013-02-28 18:59:00,68.1,64.4,29.71,West,271,5.0,10.0,88,0.00,,,0.00,0,Wunderground v.1.15,2013-02-28 07:59:00,
2013-02-28 19:04:00,68.0,64.3,29.72,South,191,4.0,4.0,88,0.00,,,0.00,0,Wunderground v.1.15,2013-02-28 08:04:00,
2013-02-28 19:09:00,68.6,64.9,29.71,SW,225,5.0,-999.0,88,0.00,,,0.66,8,Wunderground v.1.15,2013-02-28 08:09:00,
2013-02-28 19:14:00,67.9,64.2,29.72,SSW,198,4.0,4.0,88,0.00,,,0.00,0,Wunderground v.1.15,2013-02-28 08:14:00,
2013-02-28 19:19:00,67.7,64.0,29.72,West,279,5.0,5.0,88,0.00,,,0.00,0,Wunderground v.1.15,2013-02-28 08:19:00,
2013-02-28 19:24:00,67.8,64.1,29.72,WSW,253,4.0,6.0,88,0.00,,,0.00,0,Wunderground v.1.15,2013-02-28 08:24:00,
2013-02-28 19:29:00,67.9,64.2,29.72,SW,225,4.0,-999.0,88,0.00,,,0.66,0,Wunderground v.1.15,2013-02-28 08:29:00,
2013-02-28 19:34:00,67.7,64.0,29.72,SSW,202,4.0,5.0,88,0.00,,,0.00,0,Wunderground v.1.15,2013-02-28 08:34:00,
2013-02-28 19:39:00,67.9,64.2,29.72,SW,225,4.0,-999.0,88,0.00,,,0.66,0,Wunderground v.1.15,2013-02-28 08:39:00,
2013-02-28 19:44:00,67.5,64.1,29.73,West,268,4.0,4.0,89,0.00,,,0.00,0,Wunderground v.1.15,2013-02-28 08:44:00,
2013-02-28 19:49:00,67.3,63.9,29.73,West,271,5.0,6.0,89,0.00,,,0.00,0,Wunderground v.1.15,2013-02-28 08:49:00,
2013-02-28 19:54:00,67.2,64.2,29.73,WSW,252,4.0,7.0,90,0.00,,,0.00,0,Wunderground v.1.15,2013-02-28 08:54:00,
2013-02-28 19:59:00,67.1,64.4,29.74,WSW,246,4.0,8.0,91,0.00,,,0.01,0,Wunderground v.1.15,2013-02-28 08:59:00,
2013-02-28 20:04:00,67.5,64.8,29.74,SW,225,4.0,-999.0,91,0.00,,,0.66,0,Wunderground v.1.15,2013-02-28 09:04:00,
2013-02-28 20:09:00,67.5,64.8,29.74,SW,225,4.0,-999.0,91,0.00,,,0.66,0,Wunderground v.1.15,2013-02-28 09:09:00,
2013-02-28 20:14:00,67.5,64.8,29.74,SW,225,4.0,-999.0,91,0.00,,,0.66,0,Wunderground v.1.15,2013-02-28 09:14:00,
2013-02-28 20:19:00,66.3,64.5,29.75,SW,225,5.0,-999.0,94,0.26,,,0.66,0,Wunderground v.1.15,2013-02-28 09:19:00,
2013-02-28 20:24:00,66.3,64.5,29.75,SW,225,5.0,-999.0,94,0.26,,,0.66,0,Wunderground v.1.15,2013-02-28 09:24:00,
2013-02-28 20:29:00,66.3,64.5,29.75,SW,225,5.0,-999.0,94,0.26,,,0.66,0,Wunderground v.1.15,2013-02-28 09:29:00,
2013-02-28 20:34:00,66.3,64.5,29.75,SW,225,5.0,-999.0,94,0.26,,,0.66,0,Wunderground v.1.15,2013-02-28 09:34:00,
2013-02-28 20:39:00,66.3,64.5,29.75,SW,225,5.0,-999.0,94,0.26,,,0.66,0,Wunderground v.1.15,2013-02-28 09:39:00,
2013-02-28 20:44:00,66.3,64.5,29.75,SW,225,5.0,-999.0,94,0.26,,,0.66,0,Wunderground v.1.15,2013-02-28 09:44:00,
2013-02-28 20:49:00,65.2,63.7,29.75,SW,225,5.0,-999.0,95,0.54,,,0.66,0,Wunderground v.1.15,2013-02-28 09:49:00,
2013-02-28 20:54:00,65.2,63.7,29.75,SW,225,5.0,-999.0,95,0.54,,,0.66,0,Wunderground v.1.15,2013-02-28 09:54:00,
2013-02-28 20:59:00,65.2,63.7,29.75,SW,225,5.0,-999.0,95,0.54,,,0.66,0,Wunderground v.1.15,2013-02-28 09:59:00,
2013-02-28 21:04:00,65.2,63.7,29.75,SW,225,5.0,-999.0,95,0.54,,,0.66,0,Wunderground v.1.15,2013-02-28 10:04:00,
2013-02-28 21:09:00,65.2,63.7,29.75,SW,225,5.0,-999.0,95,0.54,,,0.66,0,Wunderground v.1.15,2013-02-28 10:09:00,
2013-02-28 21:14:00,65.2,63.7,29.75,SW,225,5.0,-999.0,95,0.54,,,0.66,0,Wunderground v.1.15,2013-02-28 10:14:00,
2013-02-28 21:19:00,65.0,63.5,29.76,SW,225,5.0,-999.0,95,0.31,,,0.66,0,Wunderground v.1.15,2013-02-28 10:19:00,
2013-02-28 21:24:00,65.0,63.5,29.76,SW,225,5.0,-999.0,95,0.31,,,0.66,0,Wunderground v.1.15,2013-02-28 10:24:00,
2013-02-28 21:29:00,65.0,63.5,29.76,SW,225,5.0,-999.0,95,0.31,,,0.66,0,Wunderground v.1.15,2013-02-28 10:29:00,
2013-02-28 21:34:00,65.0,63.5,29.76,SW,225,5.0,-999.0,95,0.31,,,0.66,0,Wunderground v.1.15,2013-02-28 10:34:00,
2013-02-28 21:39:00,65.0,63.5,29.76,SW,225,5.0,-999.0,95,0.31,,,0.66,0,Wunderground v.1.15,2013-02-28 10:39:00,
2013-02-28 21:44:00,65.0,63.5,29.76,SW,225,5.0,-999.0,95,0.31,,,0.66,0,Wunderground v.1.15,2013-02-28 10:44:00,
2013-02-28 21:49:00,65.1,63.9,29.76,SW,225,5.0,-999.0,96,0.03,,,0.66,0,Wunderground v.1.15,2013-02-28 10:49:00,
2013-02-28 21:54:00,65.1,63.9,29.76,SW,225,5.0,-999.0,96,0.03,,,0.66,0,Wunderground v.1.15,2013-02-28 10:54:00,
2013-02-28 21:59:00,65.1,63.9,29.76,SW,225,5.0,-999.0,96,0.03,,,0.66,0,Wunderground v.1.15,2013-02-28 10:59:00,
2013-02-28 22:04:00,65.1,63.9,29.76,SW,225,5.0,-999.0,96,0.03,,,0.66,0,Wunderground v.1.15,2013-02-28 11:04:00,
2013-02-28 22:09:00,65.1,63.9,29.76,SW,225,5.0,-999.0,96,0.03,,,0.66,0,Wunderground v.1.15,2013-02-28 11:09:00,
2013-02-28 22:14:00,65.1,63.9,29.76,SW,225,5.0,-999.0,96,0.03,,,0.66,0,Wunderground v.1.15,2013-02-28 11:14:00,
2013-02-28 22:19:00,65.3,64.1,29.77,SW,225,5.0,-999.0,96,0.02,,,0.66,0,Wunderground v.1.15,2013-02-28 11:19:00,
2013-02-28 22:24:00,65.3,64.1,29.77,SW,225,5.0,-999.0,96,0.02,,,0.66,0,Wunderground v.1.15,2013-02-28 11:24:00,
2013-02-28 22:29:00,65.3,64.1,29.77,SW,225,5.0,-999.0,96,0.02,,,0.66,0,Wunderground v.1.15,2013-02-28 11:29:00,
2013-02-28 22:34:00,65.3,64.1,29.77,SW,225,5.0,-999.0,96,0.02,,,0.66,0,Wunderground v.1.15,2013-02-28 11:34:00,
2013-02-28 22:39:00,65.3,64.1,29.77,SW,225,5.0,-999.0,96,0.02,,,0.66,0,Wunderground v.1.15,2013-02-28 11:39:00,
2013-02-28 22:44:00,65.3,64.1,29.77,SW,225,5.0,-999.0,96,0.02,,,0.66,0,Wunderground v.1.15,2013-02-28 11:44:00,
2013-02-28 22:49:00,65.5,64.3,29.76,SW,225,5.0,-999.0,96,0.06,,,0.66,0,Wunderground v.1.15,2013-02-28 11:49:00,
2013-02-28 22:54:00,65.5,64.3,29.76,SW,225,5.0,-999.0,96,0.06,,,0.66,0,Wunderground v.1.15,2013-02-28 11:54:00,
2013-02-28 22:59:00,65.5,64.3,29.76,SW,225,5.0,-999.0,96,0.06,,,0.66,0,Wunderground v.1.15,2013-02-28 11:59:00,
2013-02-28 23:04:00,65.5,64.3,29.76,SW,225,5.0,-999.0,96,0.06,,,0.66,0,Wunderground v.1.15,2013-02-28 12:04:00,
2013-02-28 23:09:00,65.5,64.3,29.76,SW,225,5.0,-999.0,96,0.06,,,0.66,0,Wunderground v.1.15,2013-02-28 12:09:00,
2013-02-28 23:14:00,65.5,64.3,29.76,SW,225,5.0,-999.0,96,0.06,,,0.66,0,Wunderground v.1.15,2013-02-28 12:14:00,
2013-02-28 23:19:00,65.4,64.2,29.77,SW,225,5.0,-999.0,96,0.07,,,0.66,0,Wunderground v.1.15,2013-02-28 12:19:00,
2013-02-28 23:24:00,65.4,64.2,29.77,SW,225,5.0,-999.0,96,0.07,,,0.66,0,Wunderground v.1.15,2013-02-28 12:24:00,
2013-02-28 23:29:00,65.4,64.2,29.77,SW,225,5.0,-999.0,96,0.07,,,0.66,0,Wunderground v.1.15,2013-02-28 12:29:00,
2013-02-28 23:34:00,65.4,64.2,29.77,SW,225,5.0,-999.0,96,0.07,,,0.66,0,Wunderground v.1.15,2013-02-28 12:34:00,
2013-02-28 23:39:00,65.4,64.2,29.77,SW,225,5.0,-999.0,96,0.07,,,0.66,0,Wunderground v.1.15,2013-02-28 12:39:00,
2013-02-28 23:44:00,65.4,64.2,29.77,SW,225,5.0,-999.0,96,0.07,,,0.66,0,Wunderground v.1.15,2013-02-28 12:44:00,
2013-02-28 23:49:00,65.5,64.3,29.76,SW,225,5.0,-999.0,96,0.02,,,0.66,0,Wunderground v.1.15,2013-02-28 12:49:00,
2013-02-28 23:54:00,65.5,64.3,29.76,SW,225,5.0,-999.0,96,0.02,,,0.66,0,Wunderground v.1.15,2013-02-28 12:54:00,
2013-02-28 23:59:00,65.5,64.3,29.76,SW,225,5.0,-999.0,96,0.02,,,0.66,0,Wunderground v.1.15,2013-02-28 12:59:00,